sensor_id;sensor_type;location;lat;lon;timestamp;P1;durP1;ratioP1;P2;durP2;ratioP2
49103;SDS011;34915;52.926;11.116;2023-04-15T00:01:09;5.53;;;3.17;;
49103;SDS011;34915;52.926;11.116;2023-04-15T00:03:34;7.47;;;3.83;;
49103;SDS011;34915;52.926;11.116;2023-04-15T00:06:00;6.30;;;4.10;;
49103;SDS011;34915;52.926;11.116;2023-04-15T00:08:26;7.27;;;4.03;;
49103;SDS011;34915;52.926;11.116;2023-04-15T00:10:51;9.37;;;4.07;;
49103;SDS011;34915;52.926;11.116;2023-04-15T00:13:17;7.67;;;4.07;;
49103;SDS011;34915;52.926;11.116;2023-04-15T00:15:43;7.43;;;3.10;;
49103;SDS011;34915;52.926;11.116;2023-04-15T00:18:08;8.07;;;4.17;;
49103;SDS011;34915;52.926;11.116;2023-04-15T00:20:34;7.60;;;3.63;;
49103;SDS011;34915;52.926;11.116;2023-04-15T00:23:00;8.23;;;4.43;;
49103;SDS011;34915;52.926;11.116;2023-04-15T00:25:26;6.30;;;3.57;;
49103;SDS011;34915;52.926;11.116;2023-04-15T00:27:52;7.87;;;4.57;;
49103;SDS011;34915;52.926;11.116;2023-04-15T00:30:18;13.20;;;4.57;;
49103;SDS011;34915;52.926;11.116;2023-04-15T00:32:43;8.70;;;4.03;;
49103;SDS011;34915;52.926;11.116;2023-04-15T00:35:10;7.10;;;4.23;;
49103;SDS011;34915;52.926;11.116;2023-04-15T00:37:35;10.83;;;4.47;;
49103;SDS011;34915;52.926;11.116;2023-04-15T00:40:01;5.83;;;3.40;;
49103;SDS011;34915;52.926;11.116;2023-04-15T00:42:30;7.90;;;4.87;;
49103;SDS011;34915;52.926;11.116;2023-04-15T00:44:56;7.37;;;3.97;;
49103;SDS011;34915;52.926;11.116;2023-04-15T00:47:21;8.30;;;4.10;;
49103;SDS011;34915;52.926;11.116;2023-04-15T00:49:47;7.57;;;4.37;;
49103;SDS011;34915;52.926;11.116;2023-04-15T00:52:13;5.93;;;3.43;;
49103;SDS011;34915;52.926;11.116;2023-04-15T00:54:38;9.23;;;4.33;;
49103;SDS011;34915;52.926;11.116;2023-04-15T00:57:05;6.97;;;3.87;;
49103;SDS011;34915;52.926;11.116;2023-04-15T00:59:32;5.33;;;3.93;;
49103;SDS011;34915;52.926;11.116;2023-04-15T01:01:58;7.00;;;4.33;;
49103;SDS011;34915;52.926;11.116;2023-04-15T01:04:24;9.00;;;4.17;;
49103;SDS011;34915;52.926;11.116;2023-04-15T01:06:49;6.73;;;3.77;;
49103;SDS011;34915;52.926;11.116;2023-04-15T01:09:15;9.77;;;4.07;;
49103;SDS011;34915;52.926;11.116;2023-04-15T01:11:41;7.83;;;4.33;;
49103;SDS011;34915;52.926;11.116;2023-04-15T01:14:08;5.70;;;3.63;;
49103;SDS011;34915;52.926;11.116;2023-04-15T01:16:35;6.73;;;3.60;;
49103;SDS011;34915;52.926;11.116;2023-04-15T01:19:07;6.87;;;3.97;;
49103;SDS011;34915;52.926;11.116;2023-04-15T01:21:35;5.80;;;3.53;;
49103;SDS011;34915;52.926;11.116;2023-04-15T01:24:05;7.17;;;3.90;;
49103;SDS011;34915;52.926;11.116;2023-04-15T01:26:37;5.30;;;3.37;;
49103;SDS011;34915;52.926;11.116;2023-04-15T01:29:04;6.43;;;3.93;;
49103;SDS011;34915;52.926;11.116;2023-04-15T01:31:31;7.07;;;4.47;;
49103;SDS011;34915;52.926;11.116;2023-04-15T01:33:57;5.60;;;3.30;;
49103;SDS011;34915;52.926;11.116;2023-04-15T01:36:23;6.07;;;3.83;;
49103;SDS011;34915;52.926;11.116;2023-04-15T01:38:48;7.57;;;4.37;;
49103;SDS011;34915;52.926;11.116;2023-04-15T01:41:15;11.33;;;3.80;;
49103;SDS011;34915;52.926;11.116;2023-04-15T01:43:41;6.70;;;3.83;;
49103;SDS011;34915;52.926;11.116;2023-04-15T01:46:07;6.90;;;3.37;;
49103;SDS011;34915;52.926;11.116;2023-04-15T01:48:32;7.90;;;4.27;;
49103;SDS011;34915;52.926;11.116;2023-04-15T01:50:58;4.83;;;3.37;;
49103;SDS011;34915;52.926;11.116;2023-04-15T01:53:27;5.77;;;3.73;;
49103;SDS011;34915;52.926;11.116;2023-04-15T01:55:53;7.63;;;4.00;;
49103;SDS011;34915;52.926;11.116;2023-04-15T01:58:19;7.93;;;3.93;;
49103;SDS011;34915;52.926;11.116;2023-04-15T02:00:44;7.00;;;4.23;;
49103;SDS011;34915;52.926;11.116;2023-04-15T02:03:10;6.90;;;3.83;;
49103;SDS011;34915;52.926;11.116;2023-04-15T02:05:36;7.17;;;3.47;;
49103;SDS011;34915;52.926;11.116;2023-04-15T02:08:01;5.80;;;3.43;;
49103;SDS011;34915;52.926;11.116;2023-04-15T02:10:28;4.07;;;3.23;;
49103;SDS011;34915;52.926;11.116;2023-04-15T02:12:53;8.30;;;4.43;;
49103;SDS011;34915;52.926;11.116;2023-04-15T02:15:19;7.57;;;4.00;;
49103;SDS011;34915;52.926;11.116;2023-04-15T02:17:44;8.40;;;4.33;;
49103;SDS011;34915;52.926;11.116;2023-04-15T02:20:14;5.93;;;3.73;;
49103;SDS011;34915;52.926;11.116;2023-04-15T02:22:41;7.17;;;3.90;;
49103;SDS011;34915;52.926;11.116;2023-04-15T02:25:07;7.33;;;4.03;;
49103;SDS011;34915;52.926;11.116;2023-04-15T02:27:34;6.13;;;3.80;;
49103;SDS011;34915;52.926;11.116;2023-04-15T02:30:00;8.27;;;4.20;;
49103;SDS011;34915;52.926;11.116;2023-04-15T02:32:26;6.57;;;3.33;;
49103;SDS011;34915;52.926;11.116;2023-04-15T02:34:53;6.13;;;3.47;;
49103;SDS011;34915;52.926;11.116;2023-04-15T02:37:18;6.20;;;3.73;;
49103;SDS011;34915;52.926;11.116;2023-04-15T02:39:44;8.53;;;4.40;;
49103;SDS011;34915;52.926;11.116;2023-04-15T02:42:10;7.03;;;4.23;;
49103;SDS011;34915;52.926;11.116;2023-04-15T02:44:39;11.40;;;4.10;;
49103;SDS011;34915;52.926;11.116;2023-04-15T02:47:05;10.83;;;5.27;;
49103;SDS011;34915;52.926;11.116;2023-04-15T02:49:31;8.50;;;4.30;;
49103;SDS011;34915;52.926;11.116;2023-04-15T02:51:57;10.00;;;4.67;;
49103;SDS011;34915;52.926;11.116;2023-04-15T02:54:24;9.93;;;5.57;;
49103;SDS011;34915;52.926;11.116;2023-04-15T02:56:55;11.13;;;5.43;;
49103;SDS011;34915;52.926;11.116;2023-04-15T02:59:20;8.90;;;4.70;;
49103;SDS011;34915;52.926;11.116;2023-04-15T03:01:46;7.60;;;4.70;;
49103;SDS011;34915;52.926;11.116;2023-04-15T03:04:12;8.60;;;4.70;;
49103;SDS011;34915;52.926;11.116;2023-04-15T03:06:38;8.60;;;5.00;;
49103;SDS011;34915;52.926;11.116;2023-04-15T03:09:03;9.90;;;4.17;;
49103;SDS011;34915;52.926;11.116;2023-04-15T03:11:32;9.90;;;5.03;;
49103;SDS011;34915;52.926;11.116;2023-04-15T03:13:57;8.00;;;3.87;;
49103;SDS011;34915;52.926;11.116;2023-04-15T03:16:23;9.07;;;5.03;;
49103;SDS011;34915;52.926;11.116;2023-04-15T03:18:50;9.37;;;5.07;;
49103;SDS011;34915;52.926;11.116;2023-04-15T03:21:18;11.53;;;4.77;;
49103;SDS011;34915;52.926;11.116;2023-04-15T03:23:44;14.53;;;5.83;;
49103;SDS011;34915;52.926;11.116;2023-04-15T03:26:10;9.57;;;5.57;;
49103;SDS011;34915;52.926;11.116;2023-04-15T03:28:51;11.23;;;5.97;;
49103;SDS011;34915;52.926;11.116;2023-04-15T03:31:17;12.40;;;6.07;;
49103;SDS011;34915;52.926;11.116;2023-04-15T03:33:42;11.10;;;5.67;;
49103;SDS011;34915;52.926;11.116;2023-04-15T03:36:08;13.57;;;6.07;;
49103;SDS011;34915;52.926;11.116;2023-04-15T03:38:33;13.23;;;6.37;;
49103;SDS011;34915;52.926;11.116;2023-04-15T03:40:59;11.47;;;5.07;;
49103;SDS011;34915;52.926;11.116;2023-04-15T03:43:25;14.50;;;6.80;;
49103;SDS011;34915;52.926;11.116;2023-04-15T03:45:51;12.73;;;6.60;;
49103;SDS011;34915;52.926;11.116;2023-04-15T03:48:16;18.90;;;6.53;;
49103;SDS011;34915;52.926;11.116;2023-04-15T03:50:42;15.37;;;7.30;;
49103;SDS011;34915;52.926;11.116;2023-04-15T03:53:07;17.10;;;6.63;;
49103;SDS011;34915;52.926;11.116;2023-04-15T03:55:33;15.53;;;6.97;;
49103;SDS011;34915;52.926;11.116;2023-04-15T03:57:59;15.73;;;6.70;;
49103;SDS011;34915;52.926;11.116;2023-04-15T04:00:24;14.43;;;6.97;;
49103;SDS011;34915;52.926;11.116;2023-04-15T04:02:50;16.43;;;8.50;;
49103;SDS011;34915;52.926;11.116;2023-04-15T04:05:15;17.90;;;8.03;;
49103;SDS011;34915;52.926;11.116;2023-04-15T04:07:41;19.17;;;8.27;;
49103;SDS011;34915;52.926;11.116;2023-04-15T04:10:07;19.73;;;9.03;;
49103;SDS011;34915;52.926;11.116;2023-04-15T04:12:32;17.23;;;7.03;;
49103;SDS011;34915;52.926;11.116;2023-04-15T04:14:58;13.83;;;7.43;;
49103;SDS011;34915;52.926;11.116;2023-04-15T04:17:24;15.03;;;7.90;;
49103;SDS011;34915;52.926;11.116;2023-04-15T04:19:49;19.83;;;8.73;;
49103;SDS011;34915;52.926;11.116;2023-04-15T04:22:15;20.27;;;9.40;;
49103;SDS011;34915;52.926;11.116;2023-04-15T04:24:40;25.03;;;8.73;;
49103;SDS011;34915;52.926;11.116;2023-04-15T04:27:06;19.83;;;7.63;;
49103;SDS011;34915;52.926;11.116;2023-04-15T04:29:32;21.30;;;8.93;;
49103;SDS011;34915;52.926;11.116;2023-04-15T04:31:57;20.67;;;8.93;;
49103;SDS011;34915;52.926;11.116;2023-04-15T04:34:23;30.40;;;10.47;;
49103;SDS011;34915;52.926;11.116;2023-04-15T04:36:48;24.10;;;9.60;;
49103;SDS011;34915;52.926;11.116;2023-04-15T04:39:14;23.30;;;10.03;;
49103;SDS011;34915;52.926;11.116;2023-04-15T04:41:39;25.53;;;10.37;;
49103;SDS011;34915;52.926;11.116;2023-04-15T04:44:05;22.03;;;9.17;;
49103;SDS011;34915;52.926;11.116;2023-04-15T04:46:31;22.97;;;9.97;;
49103;SDS011;34915;52.926;11.116;2023-04-15T04:48:56;29.50;;;11.23;;
49103;SDS011;34915;52.926;11.116;2023-04-15T04:51:22;28.50;;;10.93;;
49103;SDS011;34915;52.926;11.116;2023-04-15T04:53:47;23.90;;;11.23;;
49103;SDS011;34915;52.926;11.116;2023-04-15T04:56:13;27.67;;;11.20;;
49103;SDS011;34915;52.926;11.116;2023-04-15T04:58:38;29.40;;;10.60;;
49103;SDS011;34915;52.926;11.116;2023-04-15T05:01:04;29.50;;;10.37;;
49103;SDS011;34915;52.926;11.116;2023-04-15T05:03:30;24.53;;;10.03;;
49103;SDS011;34915;52.926;11.116;2023-04-15T05:05:55;30.77;;;11.43;;
49103;SDS011;34915;52.926;11.116;2023-04-15T05:08:21;31.40;;;10.97;;
49103;SDS011;34915;52.926;11.116;2023-04-15T05:10:47;32.60;;;11.80;;
49103;SDS011;34915;52.926;11.116;2023-04-15T05:13:12;28.67;;;11.67;;
49103;SDS011;34915;52.926;11.116;2023-04-15T05:15:38;31.43;;;12.00;;
49103;SDS011;34915;52.926;11.116;2023-04-15T05:18:05;33.67;;;11.00;;
49103;SDS011;34915;52.926;11.116;2023-04-15T05:20:31;36.03;;;11.57;;
49103;SDS011;34915;52.926;11.116;2023-04-15T05:22:56;28.80;;;12.13;;
49103;SDS011;34915;52.926;11.116;2023-04-15T05:25:22;32.50;;;12.10;;
49103;SDS011;34915;52.926;11.116;2023-04-15T05:27:47;41.80;;;13.00;;
49103;SDS011;34915;52.926;11.116;2023-04-15T05:30:13;41.67;;;12.23;;
49103;SDS011;34915;52.926;11.116;2023-04-15T05:32:39;33.37;;;12.37;;
49103;SDS011;34915;52.926;11.116;2023-04-15T05:35:05;27.30;;;11.10;;
49103;SDS011;34915;52.926;11.116;2023-04-15T05:37:32;32.60;;;10.67;;
49103;SDS011;34915;52.926;11.116;2023-04-15T05:39:57;29.13;;;11.50;;
49103;SDS011;34915;52.926;11.116;2023-04-15T05:42:23;34.53;;;10.77;;
49103;SDS011;34915;52.926;11.116;2023-04-15T05:44:48;35.13;;;11.27;;
49103;SDS011;34915;52.926;11.116;2023-04-15T05:47:14;39.53;;;11.83;;
49103;SDS011;34915;52.926;11.116;2023-04-15T05:49:40;30.93;;;11.50;;
49103;SDS011;34915;52.926;11.116;2023-04-15T05:52:05;33.20;;;12.33;;
49103;SDS011;34915;52.926;11.116;2023-04-15T05:54:31;31.37;;;11.20;;
49103;SDS011;34915;52.926;11.116;2023-04-15T05:56:56;23.33;;;10.00;;
49103;SDS011;34915;52.926;11.116;2023-04-15T05:59:22;24.07;;;9.70;;
49103;SDS011;34915;52.926;11.116;2023-04-15T06:01:48;23.50;;;9.43;;
49103;SDS011;34915;52.926;11.116;2023-04-15T06:04:14;29.73;;;10.30;;
49103;SDS011;34915;52.926;11.116;2023-04-15T06:06:39;21.50;;;9.00;;
49103;SDS011;34915;52.926;11.116;2023-04-15T06:09:05;24.80;;;9.50;;
49103;SDS011;34915;52.926;11.116;2023-04-15T06:11:30;26.03;;;8.73;;
49103;SDS011;34915;52.926;11.116;2023-04-15T06:13:56;23.63;;;9.03;;
49103;SDS011;34915;52.926;11.116;2023-04-15T06:16:22;26.40;;;9.20;;
49103;SDS011;34915;52.926;11.116;2023-04-15T06:18:47;28.40;;;9.40;;
49103;SDS011;34915;52.926;11.116;2023-04-15T06:21:13;25.53;;;10.20;;
49103;SDS011;34915;52.926;11.116;2023-04-15T06:23:40;29.00;;;9.43;;
49103;SDS011;34915;52.926;11.116;2023-04-15T06:26:06;22.83;;;9.73;;
49103;SDS011;34915;52.926;11.116;2023-04-15T06:28:32;25.90;;;9.63;;
49103;SDS011;34915;52.926;11.116;2023-04-15T06:30:57;33.50;;;10.37;;
49103;SDS011;34915;52.926;11.116;2023-04-15T06:33:23;29.73;;;9.87;;
49103;SDS011;34915;52.926;11.116;2023-04-15T06:35:49;33.07;;;10.07;;
49103;SDS011;34915;52.926;11.116;2023-04-15T06:38:15;39.90;;;12.13;;
49103;SDS011;34915;52.926;11.116;2023-04-15T06:40:40;27.87;;;10.13;;
49103;SDS011;34915;52.926;11.116;2023-04-15T06:43:06;34.07;;;9.33;;
49103;SDS011;34915;52.926;11.116;2023-04-15T06:45:32;28.77;;;8.90;;
49103;SDS011;34915;52.926;11.116;2023-04-15T06:47:57;33.57;;;11.13;;
49103;SDS011;34915;52.926;11.116;2023-04-15T06:50:23;30.77;;;10.13;;
49103;SDS011;34915;52.926;11.116;2023-04-15T06:52:51;32.40;;;12.23;;
49103;SDS011;34915;52.926;11.116;2023-04-15T06:55:16;30.30;;;10.77;;
49103;SDS011;34915;52.926;11.116;2023-04-15T06:57:42;28.67;;;9.47;;
49103;SDS011;34915;52.926;11.116;2023-04-15T07:00:08;29.37;;;10.00;;
49103;SDS011;34915;52.926;11.116;2023-04-15T07:02:36;32.03;;;10.60;;
49103;SDS011;34915;52.926;11.116;2023-04-15T07:05:02;24.17;;;10.03;;
49103;SDS011;34915;52.926;11.116;2023-04-15T07:07:28;37.10;;;10.27;;
49103;SDS011;34915;52.926;11.116;2023-04-15T07:09:54;25.67;;;8.87;;
49103;SDS011;34915;52.926;11.116;2023-04-15T07:12:20;32.37;;;11.10;;
49103;SDS011;34915;52.926;11.116;2023-04-15T07:14:45;36.50;;;10.00;;
49103;SDS011;34915;52.926;11.116;2023-04-15T07:17:11;31.97;;;9.67;;
49103;SDS011;34915;52.926;11.116;2023-04-15T07:19:37;31.33;;;9.90;;
49103;SDS011;34915;52.926;11.116;2023-04-15T07:22:02;21.90;;;9.17;;
49103;SDS011;34915;52.926;11.116;2023-04-15T07:24:28;26.63;;;10.57;;
49103;SDS011;34915;52.926;11.116;2023-04-15T07:26:54;26.70;;;9.83;;
49103;SDS011;34915;52.926;11.116;2023-04-15T07:29:23;23.93;;;10.80;;
49103;SDS011;34915;52.926;11.116;2023-04-15T07:31:49;39.47;;;11.33;;
49103;SDS011;34915;52.926;11.116;2023-04-15T07:34:14;30.80;;;11.97;;
49103;SDS011;34915;52.926;11.116;2023-04-15T07:36:40;27.50;;;11.77;;
49103;SDS011;34915;52.926;11.116;2023-04-15T07:39:07;26.10;;;9.70;;
49103;SDS011;34915;52.926;11.116;2023-04-15T07:41:32;27.57;;;11.07;;
49103;SDS011;34915;52.926;11.116;2023-04-15T07:43:58;29.83;;;12.33;;
49103;SDS011;34915;52.926;11.116;2023-04-15T07:46:24;29.43;;;11.53;;
49103;SDS011;34915;52.926;11.116;2023-04-15T07:48:51;28.50;;;11.30;;
49103;SDS011;34915;52.926;11.116;2023-04-15T07:51:17;24.00;;;10.63;;
49103;SDS011;34915;52.926;11.116;2023-04-15T07:53:45;26.30;;;10.17;;
49103;SDS011;34915;52.926;11.116;2023-04-15T07:56:14;24.73;;;11.10;;
49103;SDS011;34915;52.926;11.116;2023-04-15T07:58:40;25.23;;;10.00;;
49103;SDS011;34915;52.926;11.116;2023-04-15T08:01:06;27.50;;;11.53;;
49103;SDS011;34915;52.926;11.116;2023-04-15T08:03:32;28.23;;;11.20;;
49103;SDS011;34915;52.926;11.116;2023-04-15T08:06:01;36.13;;;13.63;;
49103;SDS011;34915;52.926;11.116;2023-04-15T08:08:27;33.77;;;12.90;;
49103;SDS011;34915;52.926;11.116;2023-04-15T08:10:52;23.77;;;11.70;;
49103;SDS011;34915;52.926;11.116;2023-04-15T08:13:18;27.43;;;10.80;;
49103;SDS011;34915;52.926;11.116;2023-04-15T08:15:43;25.37;;;11.13;;
49103;SDS011;34915;52.926;11.116;2023-04-15T08:18:09;29.33;;;11.63;;
49103;SDS011;34915;52.926;11.116;2023-04-15T08:20:35;27.80;;;11.73;;
49103;SDS011;34915;52.926;11.116;2023-04-15T08:23:01;28.03;;;10.80;;
49103;SDS011;34915;52.926;11.116;2023-04-15T08:25:27;25.67;;;11.30;;
49103;SDS011;34915;52.926;11.116;2023-04-15T08:27:56;33.40;;;12.70;;
49103;SDS011;34915;52.926;11.116;2023-04-15T08:30:22;28.27;;;11.90;;
49103;SDS011;34915;52.926;11.116;2023-04-15T08:32:49;28.27;;;10.53;;
49103;SDS011;34915;52.926;11.116;2023-04-15T08:35:15;35.50;;;14.90;;
49103;SDS011;34915;52.926;11.116;2023-04-15T08:37:41;28.33;;;13.00;;
49103;SDS011;34915;52.926;11.116;2023-04-15T08:40:07;29.93;;;12.77;;
49103;SDS011;34915;52.926;11.116;2023-04-15T08:42:40;26.83;;;11.43;;
49103;SDS011;34915;52.926;11.116;2023-04-15T08:45:13;34.67;;;13.77;;
49103;SDS011;34915;52.926;11.116;2023-04-15T08:47:39;30.33;;;12.67;;
49103;SDS011;34915;52.926;11.116;2023-04-15T08:50:08;38.17;;;16.37;;
49103;SDS011;34915;52.926;11.116;2023-04-15T08:52:35;32.40;;;13.80;;
49103;SDS011;34915;52.926;11.116;2023-04-15T08:55:04;30.37;;;13.47;;
49103;SDS011;34915;52.926;11.116;2023-04-15T08:57:32;34.00;;;12.70;;
49103;SDS011;34915;52.926;11.116;2023-04-15T08:59:58;34.97;;;14.17;;
49103;SDS011;34915;52.926;11.116;2023-04-15T09:02:25;36.43;;;12.97;;
49103;SDS011;34915;52.926;11.116;2023-04-15T09:04:51;33.27;;;14.03;;
49103;SDS011;34915;52.926;11.116;2023-04-15T09:07:17;34.27;;;15.07;;
49103;SDS011;34915;52.926;11.116;2023-04-15T09:09:43;28.07;;;12.80;;
49103;SDS011;34915;52.926;11.116;2023-04-15T09:12:10;39.93;;;17.60;;
49103;SDS011;34915;52.926;11.116;2023-04-15T09:14:38;30.90;;;15.50;;
49103;SDS011;34915;52.926;11.116;2023-04-15T09:17:04;26.13;;;12.93;;
49103;SDS011;34915;52.926;11.116;2023-04-15T09:19:34;30.80;;;14.93;;
49103;SDS011;34915;52.926;11.116;2023-04-15T09:21:59;36.20;;;14.97;;
49103;SDS011;34915;52.926;11.116;2023-04-15T09:24:32;34.93;;;15.33;;
49103;SDS011;34915;52.926;11.116;2023-04-15T09:27:04;32.37;;;14.67;;
49103;SDS011;34915;52.926;11.116;2023-04-15T09:29:30;39.23;;;16.43;;
49103;SDS011;34915;52.926;11.116;2023-04-15T09:31:56;36.87;;;14.70;;
49103;SDS011;34915;52.926;11.116;2023-04-15T09:34:45;29.30;;;12.13;;
49103;SDS011;34915;52.926;11.116;2023-04-15T09:37:11;35.10;;;14.00;;
49103;SDS011;34915;52.926;11.116;2023-04-15T09:39:47;29.03;;;13.17;;
49103;SDS011;34915;52.926;11.116;2023-04-15T09:42:14;35.87;;;15.93;;
49103;SDS011;34915;52.926;11.116;2023-04-15T09:44:41;35.13;;;15.70;;
49103;SDS011;34915;52.926;11.116;2023-04-15T09:47:08;38.30;;;14.53;;
49103;SDS011;34915;52.926;11.116;2023-04-15T09:49:33;35.37;;;14.27;;
49103;SDS011;34915;52.926;11.116;2023-04-15T09:52:01;33.90;;;15.27;;
49103;SDS011;34915;52.926;11.116;2023-04-15T09:54:33;30.47;;;14.17;;
49103;SDS011;34915;52.926;11.116;2023-04-15T09:57:04;36.87;;;15.70;;
49103;SDS011;34915;52.926;11.116;2023-04-15T09:59:31;34.57;;;16.47;;
49103;SDS011;34915;52.926;11.116;2023-04-15T10:01:56;32.23;;;14.87;;
49103;SDS011;34915;52.926;11.116;2023-04-15T10:04:22;38.17;;;18.23;;
49103;SDS011;34915;52.926;11.116;2023-04-15T10:06:49;31.10;;;16.50;;
49103;SDS011;34915;52.926;11.116;2023-04-15T10:09:15;32.37;;;15.77;;
49103;SDS011;34915;52.926;11.116;2023-04-15T10:11:41;28.47;;;13.77;;
49103;SDS011;34915;52.926;11.116;2023-04-15T10:14:09;36.37;;;17.17;;
49103;SDS011;34915;52.926;11.116;2023-04-15T10:16:37;35.03;;;18.17;;
49103;SDS011;34915;52.926;11.116;2023-04-15T10:19:07;34.30;;;17.90;;
49103;SDS011;34915;52.926;11.116;2023-04-15T10:21:34;31.73;;;16.30;;
49103;SDS011;34915;52.926;11.116;2023-04-15T10:24:03;31.30;;;17.47;;
49103;SDS011;34915;52.926;11.116;2023-04-15T10:26:30;26.77;;;16.17;;
49103;SDS011;34915;52.926;11.116;2023-04-15T10:28:58;32.87;;;17.73;;
49103;SDS011;34915;52.926;11.116;2023-04-15T10:31:25;28.17;;;16.53;;
49103;SDS011;34915;52.926;11.116;2023-04-15T10:33:51;32.93;;;18.03;;
49103;SDS011;34915;52.926;11.116;2023-04-15T10:36:17;28.27;;;15.93;;
49103;SDS011;34915;52.926;11.116;2023-04-15T10:38:44;26.90;;;16.10;;
49103;SDS011;34915;52.926;11.116;2023-04-15T10:46:34;28.40;;;15.10;;
49103;SDS011;34915;52.926;11.116;2023-04-15T10:49:08;24.53;;;15.40;;
49103;SDS011;34915;52.926;11.116;2023-04-15T10:51:39;23.37;;;15.00;;
49103;SDS011;34915;52.926;11.116;2023-04-15T10:54:17;25.00;;;15.90;;
49103;SDS011;34915;52.926;11.116;2023-04-15T10:59:30;24.20;;;15.73;;
49103;SDS011;34915;52.926;11.116;2023-04-15T11:02:00;20.40;;;13.73;;
49103;SDS011;34915;52.926;11.116;2023-04-15T11:12:42;21.00;;;14.30;;
49103;SDS011;34915;52.926;11.116;2023-04-15T11:17:54;19.03;;;13.47;;
49103;SDS011;34915;52.926;11.116;2023-04-15T11:20:32;16.73;;;12.73;;
49103;SDS011;34915;52.926;11.116;2023-04-15T11:22:58;18.03;;;13.17;;
49103;SDS011;34915;52.926;11.116;2023-04-15T11:25:27;17.17;;;12.07;;
49103;SDS011;34915;52.926;11.116;2023-04-15T11:27:54;17.97;;;10.93;;
49103;SDS011;34915;52.926;11.116;2023-04-15T11:30:21;18.50;;;11.43;;
49103;SDS011;34915;52.926;11.116;2023-04-15T11:32:51;16.47;;;11.60;;
49103;SDS011;34915;52.926;11.116;2023-04-15T11:35:25;17.77;;;11.43;;
49103;SDS011;34915;52.926;11.116;2023-04-15T11:37:50;16.23;;;11.73;;
49103;SDS011;34915;52.926;11.116;2023-04-15T11:40:21;16.47;;;11.33;;
49103;SDS011;34915;52.926;11.116;2023-04-15T11:43:07;16.70;;;12.03;;
49103;SDS011;34915;52.926;11.116;2023-04-15T11:48:14;15.63;;;10.77;;
49103;SDS011;34915;52.926;11.116;2023-04-15T11:50:40;17.73;;;11.87;;
49103;SDS011;34915;52.926;11.116;2023-04-15T11:53:06;15.80;;;10.90;;
49103;SDS011;34915;52.926;11.116;2023-04-15T12:00:52;15.97;;;12.53;;
49103;SDS011;34915;52.926;11.116;2023-04-15T12:13:52;7.87;;;7.07;;
49103;SDS011;34915;52.926;11.116;2023-04-15T12:16:19;8.20;;;6.83;;
49103;SDS011;34915;52.926;11.116;2023-04-15T12:18:45;7.13;;;6.43;;
49103;SDS011;34915;52.926;11.116;2023-04-15T12:21:12;11.37;;;6.23;;
49103;SDS011;34915;52.926;11.116;2023-04-15T12:23:39;8.67;;;7.03;;
49103;SDS011;34915;52.926;11.116;2023-04-15T12:26:13;8.53;;;6.87;;
49103;SDS011;34915;52.926;11.116;2023-04-15T12:28:39;8.30;;;6.83;;
49103;SDS011;34915;52.926;11.116;2023-04-15T12:31:08;7.37;;;5.80;;
49103;SDS011;34915;52.926;11.116;2023-04-15T12:33:35;7.37;;;6.60;;
49103;SDS011;34915;52.926;11.116;2023-04-15T12:36:01;11.50;;;7.60;;
49103;SDS011;34915;52.926;11.116;2023-04-15T12:38:27;8.77;;;6.67;;
49103;SDS011;34915;52.926;11.116;2023-04-15T12:40:52;9.57;;;6.33;;
49103;SDS011;34915;52.926;11.116;2023-04-15T12:43:18;9.03;;;6.70;;
49103;SDS011;34915;52.926;11.116;2023-04-15T12:45:44;8.50;;;6.40;;
49103;SDS011;34915;52.926;11.116;2023-04-15T12:48:09;7.73;;;6.30;;
49103;SDS011;34915;52.926;11.116;2023-04-15T12:50:35;6.87;;;5.87;;
49103;SDS011;34915;52.926;11.116;2023-04-15T12:53:01;6.90;;;6.20;;
49103;SDS011;34915;52.926;11.116;2023-04-15T12:55:27;8.37;;;6.40;;
49103;SDS011;34915;52.926;11.116;2023-04-15T12:57:55;7.30;;;6.47;;
49103;SDS011;34915;52.926;11.116;2023-04-15T13:00:21;10.57;;;6.60;;
49103;SDS011;34915;52.926;11.116;2023-04-15T13:02:47;9.33;;;7.00;;
49103;SDS011;34915;52.926;11.116;2023-04-15T13:05:13;8.07;;;6.13;;
49103;SDS011;34915;52.926;11.116;2023-04-15T13:07:40;7.40;;;6.37;;
49103;SDS011;34915;52.926;11.116;2023-04-15T13:10:08;7.70;;;6.07;;
49103;SDS011;34915;52.926;11.116;2023-04-15T13:12:34;7.57;;;6.37;;
49103;SDS011;34915;52.926;11.116;2023-04-15T13:15:01;9.67;;;6.83;;
49103;SDS011;34915;52.926;11.116;2023-04-15T13:17:28;7.10;;;6.37;;
49103;SDS011;34915;52.926;11.116;2023-04-15T13:19:53;6.90;;;6.20;;
49103;SDS011;34915;52.926;11.116;2023-04-15T13:22:19;6.30;;;5.40;;
49103;SDS011;34915;52.926;11.116;2023-04-15T13:24:45;9.03;;;6.97;;
49103;SDS011;34915;52.926;11.116;2023-04-15T13:27:10;11.50;;;6.50;;
49103;SDS011;34915;52.926;11.116;2023-04-15T13:29:36;8.10;;;6.40;;
49103;SDS011;34915;52.926;11.116;2023-04-15T13:32:02;9.27;;;6.50;;
49103;SDS011;34915;52.926;11.116;2023-04-15T13:34:27;7.37;;;6.53;;
49103;SDS011;34915;52.926;11.116;2023-04-15T13:36:53;6.90;;;6.07;;
49103;SDS011;34915;52.926;11.116;2023-04-15T13:39:18;7.53;;;6.37;;
49103;SDS011;34915;52.926;11.116;2023-04-15T13:41:44;7.83;;;6.20;;
49103;SDS011;34915;52.926;11.116;2023-04-15T13:44:10;9.70;;;6.40;;
49103;SDS011;34915;52.926;11.116;2023-04-15T13:46:36;7.27;;;6.40;;
49103;SDS011;34915;52.926;11.116;2023-04-15T13:49:03;9.83;;;6.53;;
49103;SDS011;34915;52.926;11.116;2023-04-15T13:51:31;6.70;;;5.93;;
49103;SDS011;34915;52.926;11.116;2023-04-15T13:53:57;7.07;;;6.37;;
49103;SDS011;34915;52.926;11.116;2023-04-15T13:56:23;7.57;;;6.37;;
49103;SDS011;34915;52.926;11.116;2023-04-15T13:58:48;8.83;;;6.80;;
49103;SDS011;34915;52.926;11.116;2023-04-15T14:01:14;8.07;;;6.10;;
49103;SDS011;34915;52.926;11.116;2023-04-15T14:03:39;6.97;;;5.67;;
49103;SDS011;34915;52.926;11.116;2023-04-15T14:06:05;8.47;;;6.73;;
49103;SDS011;34915;52.926;11.116;2023-04-15T14:08:30;7.90;;;5.60;;
49103;SDS011;34915;52.926;11.116;2023-04-15T14:10:56;9.90;;;6.43;;
49103;SDS011;34915;52.926;11.116;2023-04-15T14:13:22;7.53;;;6.10;;
49103;SDS011;34915;52.926;11.116;2023-04-15T14:15:47;7.83;;;6.43;;
49103;SDS011;34915;52.926;11.116;2023-04-15T14:18:13;8.00;;;6.20;;
49103;SDS011;34915;52.926;11.116;2023-04-15T14:20:38;8.73;;;6.10;;
49103;SDS011;34915;52.926;11.116;2023-04-15T14:23:04;7.83;;;5.67;;
49103;SDS011;34915;52.926;11.116;2023-04-15T14:25:30;7.83;;;6.30;;
49103;SDS011;34915;52.926;11.116;2023-04-15T14:27:55;7.40;;;6.00;;
49103;SDS011;34915;52.926;11.116;2023-04-15T14:30:21;8.23;;;5.40;;
49103;SDS011;34915;52.926;11.116;2023-04-15T14:32:46;10.67;;;5.93;;
49103;SDS011;34915;52.926;11.116;2023-04-15T14:35:12;6.60;;;5.60;;
49103;SDS011;34915;52.926;11.116;2023-04-15T14:37:37;7.07;;;5.90;;
49103;SDS011;34915;52.926;11.116;2023-04-15T14:40:03;9.20;;;6.43;;
49103;SDS011;34915;52.926;11.116;2023-04-15T14:42:29;7.90;;;5.80;;
49103;SDS011;34915;52.926;11.116;2023-04-15T14:44:55;7.47;;;5.73;;
49103;SDS011;34915;52.926;11.116;2023-04-15T14:47:20;9.20;;;5.77;;
49103;SDS011;34915;52.926;11.116;2023-04-15T14:49:46;8.30;;;6.13;;
49103;SDS011;34915;52.926;11.116;2023-04-15T14:52:11;8.50;;;5.97;;
49103;SDS011;34915;52.926;11.116;2023-04-15T14:54:37;7.67;;;6.23;;